createdAt,value
2023-04-24T00:01:34.178Z,1.40
2023-04-24T00:04:01.005Z,1.00
2023-04-24T00:06:27.583Z,1.20
2023-04-24T00:08:54.061Z,1.08
2023-04-24T00:11:20.526Z,1.42
2023-04-24T00:13:46.964Z,1.10
2023-04-24T00:16:13.459Z,0.93
2023-04-24T00:18:40.161Z,0.70
2023-04-24T00:21:06.887Z,0.90
2023-04-24T00:23:33.673Z,1.10
2023-04-24T00:26:00.371Z,1.10
2023-04-24T00:28:26.812Z,1.15
2023-04-24T00:30:54.807Z,1.05
2023-04-24T00:33:21.230Z,1.67
2023-04-24T00:35:48.037Z,1.80
2023-04-24T00:38:14.668Z,1.33
2023-04-24T00:40:41.154Z,1.80
2023-04-24T00:43:09.406Z,1.58
2023-04-24T00:45:37.278Z,1.60
2023-04-24T00:48:03.843Z,1.40
2023-04-24T00:50:30.649Z,1.60
2023-04-24T00:52:57.493Z,2.13
2023-04-24T00:55:24.247Z,1.52
2023-04-24T00:57:51.601Z,1.83
2023-04-24T01:00:18.380Z,1.52
2023-04-24T01:02:45.666Z,1.45
2023-04-24T01:05:13.988Z,2.13
2023-04-24T01:07:42.207Z,1.65
2023-04-24T01:10:09.804Z,1.60
2023-04-24T01:12:36.331Z,1.33
2023-04-24T01:15:03.071Z,0.93
2023-04-24T01:17:29.739Z,1.10
2023-04-24T01:19:57.061Z,1.20
2023-04-24T01:22:23.750Z,0.80
2023-04-24T01:24:50.205Z,1.02
2023-04-24T01:27:16.691Z,0.70
2023-04-24T01:29:43.519Z,0.80
2023-04-24T01:32:10.378Z,0.80
2023-04-24T01:34:38.385Z,0.80
2023-04-24T01:37:05.996Z,1.00
2023-04-24T01:39:33.037Z,1.00
2023-04-24T01:41:59.463Z,1.10
2023-04-24T01:44:26.548Z,0.80
2023-04-24T01:46:53.298Z,1.08
2023-04-24T01:49:19.922Z,1.00
2023-04-24T01:51:46.480Z,1.08
2023-04-24T01:54:13.511Z,1.27
2023-04-24T01:56:44.227Z,1.13
2023-04-24T01:59:13.994Z,1.15
2023-04-24T02:01:40.634Z,1.40
2023-04-24T02:04:08.938Z,1.15
2023-04-24T02:06:36.149Z,1.52
2023-04-24T02:09:03.566Z,1.08
2023-04-24T02:11:30.179Z,1.30
2023-04-24T02:13:56.695Z,1.40
2023-04-24T02:16:23.508Z,1.10
2023-04-24T02:18:49.943Z,1.25
2023-04-24T02:21:16.359Z,1.10
2023-04-24T02:23:42.834Z,1.00
2023-04-24T02:26:09.425Z,1.23
2023-04-24T02:28:36.237Z,1.05
2023-04-24T02:31:02.871Z,1.17
2023-04-24T02:33:29.456Z,1.35
2023-04-24T02:35:55.879Z,2.00
2023-04-24T02:38:23.389Z,3.03
2023-04-24T02:40:49.907Z,1.75
2023-04-24T02:43:16.402Z,1.35
2023-04-24T02:45:42.939Z,1.40
2023-04-24T02:48:09.364Z,1.25
2023-04-24T02:50:35.912Z,1.20
2023-04-24T02:53:02.462Z,1.10
2023-04-24T02:55:29.186Z,1.30
2023-04-24T02:57:55.646Z,0.90
2023-04-24T03:00:22.434Z,1.20
2023-04-24T03:02:49.175Z,0.80
2023-04-24T03:05:16.004Z,0.80
2023-04-24T03:07:42.550Z,1.27
2023-04-24T03:10:09.511Z,0.88
2023-04-24T03:12:36.108Z,0.88
2023-04-24T03:15:03.128Z,0.85
2023-04-24T03:17:29.738Z,1.08
2023-04-24T03:19:56.746Z,1.02
2023-04-24T03:22:24.291Z,0.98
2023-04-24T03:24:50.892Z,1.13
2023-04-24T03:27:17.568Z,1.20
2023-04-24T03:29:44.279Z,1.50
2023-04-24T03:32:11.142Z,1.40
2023-04-24T03:34:37.685Z,1.27
2023-04-24T03:37:05.023Z,1.30
2023-04-24T03:39:31.736Z,1.13
2023-04-24T03:41:58.256Z,1.10
2023-04-24T03:44:24.717Z,1.05
2023-04-24T03:46:51.181Z,0.90
2023-04-24T03:49:17.637Z,1.42
2023-04-24T03:51:44.186Z,0.85
2023-04-24T03:54:10.670Z,0.82
2023-04-24T03:56:37.101Z,1.20
2023-04-24T03:59:03.519Z,1.10
2023-04-24T04:01:30.029Z,1.20
2023-04-24T04:03:56.530Z,0.77
2023-04-24T04:06:23.176Z,0.90
2023-04-24T04:08:49.833Z,1.00
2023-04-24T04:11:16.360Z,1.30
2023-04-24T04:13:42.779Z,1.40
2023-04-24T04:16:10.032Z,1.10
2023-04-24T04:18:36.515Z,0.93
2023-04-24T04:21:03.172Z,1.13
2023-04-24T04:23:29.614Z,1.15
2023-04-24T04:25:56.314Z,1.20
2023-04-24T04:28:22.794Z,1.60
2023-04-24T04:30:49.254Z,1.35
2023-04-24T04:33:15.739Z,1.30
2023-04-24T04:35:42.371Z,1.10
2023-04-24T04:38:08.955Z,1.20
2023-04-24T04:40:35.795Z,1.33
2023-04-24T04:43:02.403Z,1.20
2023-04-24T04:45:29.397Z,1.30
2023-04-24T04:47:56.256Z,1.20
2023-04-24T04:50:22.759Z,1.20
2023-04-24T04:52:49.699Z,1.23
2023-04-24T04:55:16.457Z,1.50
2023-04-24T04:57:43.070Z,2.10
2023-04-24T05:00:11.249Z,1.38
2023-04-24T05:02:37.950Z,1.45
2023-04-24T05:05:05.043Z,1.60
2023-04-24T05:07:31.808Z,1.80
2023-04-24T05:09:58.387Z,1.67
2023-04-24T05:12:24.848Z,1.77
2023-04-24T05:14:51.645Z,2.22
2023-04-24T05:17:18.364Z,3.40
2023-04-24T05:19:45.370Z,2.53
2023-04-24T05:22:12.067Z,2.50
2023-04-24T05:24:39.400Z,2.88
2023-04-24T05:27:05.925Z,3.50
2023-04-24T05:29:32.917Z,4.70
2023-04-24T05:31:59.688Z,3.80
2023-04-24T05:34:26.065Z,3.25
2023-04-24T05:36:52.725Z,2.90
2023-04-24T05:39:19.169Z,1.90
2023-04-24T05:41:45.961Z,2.83
2023-04-24T05:44:12.463Z,3.67
2023-04-24T05:46:38.851Z,3.28
2023-04-24T05:49:05.226Z,2.67
2023-04-24T05:51:32.176Z,2.67
2023-04-24T05:54:00.058Z,2.45
2023-04-24T05:56:28.734Z,2.70
2023-04-24T05:58:55.130Z,3.67
2023-04-24T06:01:23.632Z,26.70
2023-04-24T06:03:50.118Z,12.15
2023-04-24T06:06:17.914Z,10.30
2023-04-24T06:08:44.273Z,6.82
2023-04-24T06:11:11.181Z,5.55
2023-04-24T06:13:39.462Z,5.18
2023-04-24T06:16:06.051Z,4.32
2023-04-24T06:18:33.239Z,3.83
2023-04-24T06:20:59.795Z,3.83
2023-04-24T06:23:26.517Z,3.70
2023-04-24T06:25:55.322Z,4.20
2023-04-24T06:28:21.680Z,3.67
2023-04-24T06:30:48.148Z,3.58
2023-04-24T06:35:45.579Z,4.70
2023-04-24T06:38:11.990Z,5.18
2023-04-24T06:40:39.337Z,4.28
2023-04-24T06:43:06.107Z,4.07
2023-04-24T06:45:32.586Z,2.53
2023-04-24T06:47:59.200Z,1.83
2023-04-24T06:50:26.154Z,1.90
2023-04-24T06:52:52.730Z,2.10
2023-04-24T06:55:19.192Z,2.35
2023-04-24T06:57:45.636Z,1.88
2023-04-24T07:00:12.952Z,1.90
2023-04-24T07:02:41.058Z,1.92
2023-04-24T07:05:08.490Z,1.60
2023-04-24T07:07:35.704Z,1.70
2023-04-24T07:10:04.634Z,1.55
2023-04-24T07:12:31.142Z,1.50
2023-04-24T07:14:57.762Z,1.42
2023-04-24T07:17:24.234Z,1.65
2023-04-24T07:19:50.781Z,1.75
2023-04-24T07:22:18.298Z,1.70
2023-04-24T07:24:46.850Z,1.50
2023-04-24T07:27:13.664Z,1.70
2023-04-24T07:29:40.729Z,1.75
2023-04-24T07:32:07.581Z,1.90
2023-04-24T07:34:35.363Z,1.73
2023-04-24T07:37:02.812Z,2.00
2023-04-24T07:39:29.490Z,1.98
2023-04-24T07:41:55.983Z,2.03
2023-04-24T07:44:22.600Z,2.30
2023-04-24T07:46:49.239Z,2.40
2023-04-24T07:49:17.085Z,2.00
2023-04-24T07:51:46.463Z,1.93
2023-04-24T07:54:13.096Z,2.15
2023-04-24T07:56:39.652Z,2.20
2023-04-24T07:59:06.784Z,1.85
2023-04-24T08:01:33.218Z,1.80
2023-04-24T08:03:59.880Z,2.05
2023-04-24T08:06:26.674Z,2.53
2023-04-24T08:08:53.163Z,2.00
2023-04-24T08:11:19.722Z,3.60
2023-04-24T08:13:46.605Z,2.03
2023-04-24T08:16:13.378Z,1.50
2023-04-24T08:18:40.016Z,1.17
2023-04-24T08:21:06.414Z,1.10
2023-04-24T08:23:32.849Z,1.70
2023-04-24T08:25:59.360Z,1.45
2023-04-24T08:28:26.519Z,2.20
2023-04-24T08:30:52.872Z,1.52
2023-04-24T08:33:19.273Z,1.50
2023-04-24T08:35:45.688Z,2.67
2023-04-24T08:38:12.114Z,2.20
2023-04-24T08:40:39.032Z,1.55
2023-04-24T08:43:05.552Z,2.08
2023-04-24T08:45:34.036Z,1.63
2023-04-24T08:48:01.003Z,1.95
2023-04-24T08:50:27.940Z,2.80
2023-04-24T08:52:54.438Z,1.90
2023-04-24T08:55:21.502Z,2.00
2023-04-24T08:57:53.004Z,1.80
2023-04-24T09:00:21.790Z,2.10
2023-04-24T09:02:51.581Z,1.70
2023-04-24T09:05:21.231Z,1.80
2023-04-24T09:07:57.535Z,2.33
2023-04-24T09:10:27.254Z,1.73
2023-04-24T09:12:55.245Z,2.75
2023-04-24T09:15:23.078Z,1.60
2023-04-24T09:17:50.361Z,1.50
2023-04-24T09:20:17.533Z,1.55
2023-04-24T09:22:45.011Z,1.70
2023-04-24T09:25:12.794Z,1.65
2023-04-24T09:27:45.024Z,2.08
2023-04-24T09:30:12.314Z,1.70
2023-04-24T09:32:38.822Z,1.98
2023-04-24T09:35:16.417Z,2.10
2023-04-24T09:37:45.342Z,2.67
2023-04-24T09:40:16.018Z,1.80
2023-04-24T09:45:22.512Z,1.63
2023-04-24T09:47:53.373Z,1.20
2023-04-24T09:50:21.305Z,1.45
2023-04-24T09:53:01.418Z,1.20
2023-04-24T09:55:28.558Z,1.27
2023-04-24T09:58:02.661Z,1.90
2023-04-24T10:00:31.856Z,1.10
2023-04-24T10:03:23.016Z,1.10
2023-04-24T10:05:55.418Z,1.30
2023-04-24T10:08:22.739Z,1.15
2023-04-24T10:10:49.220Z,1.48
2023-04-24T10:13:16.260Z,1.67
2023-04-24T10:15:43.475Z,1.10
2023-04-24T10:18:11.288Z,0.95
2023-04-24T10:20:39.870Z,1.00
2023-04-24T10:23:06.954Z,1.13
2023-04-24T10:25:35.778Z,0.90
2023-04-24T10:28:03.480Z,1.10
2023-04-24T10:30:35.524Z,1.02
2023-04-24T10:33:08.023Z,1.10
2023-04-24T10:35:42.941Z,1.30
2023-04-24T10:38:13.090Z,1.08
2023-04-24T10:40:40.327Z,1.05
2023-04-24T10:43:08.531Z,1.00
2023-04-24T10:45:35.177Z,1.10
2023-04-24T10:48:09.912Z,1.30
2023-04-24T10:50:48.068Z,1.20
2023-04-24T10:53:18.969Z,1.02
2023-04-24T10:56:13.214Z,1.00
2023-04-24T10:58:41.929Z,1.88
2023-04-24T11:01:08.799Z,1.90
2023-04-24T11:03:36.981Z,1.95
2023-04-24T11:06:06.842Z,0.80
2023-04-24T11:08:44.759Z,1.30
2023-04-24T11:11:15.390Z,1.13
2023-04-24T11:13:57.140Z,1.08
2023-04-24T11:16:30.020Z,1.30
2023-04-24T11:19:08.445Z,1.10
2023-04-24T11:22:15.818Z,1.17
2023-04-24T11:24:48.357Z,1.00
2023-04-24T11:27:20.700Z,1.17
2023-04-24T11:29:56.644Z,1.10
2023-04-24T11:32:31.927Z,1.23
2023-04-24T11:35:18.653Z,0.82
2023-04-24T11:37:49.492Z,1.52
2023-04-24T11:40:25.733Z,1.27
2023-04-24T11:42:53.705Z,1.45
2023-04-24T11:45:24.828Z,1.60
2023-04-24T11:47:52.354Z,1.27
2023-04-24T11:50:20.714Z,1.30
2023-04-24T11:52:48.881Z,1.40
2023-04-24T11:55:15.368Z,1.38
2023-04-24T11:57:55.251Z,1.20
2023-04-24T12:00:29.594Z,2.53
2023-04-24T12:03:13.065Z,1.80
2023-04-24T12:05:41.458Z,1.58
2023-04-24T12:08:08.247Z,1.65
2023-04-24T12:10:35.484Z,1.65
2023-04-24T12:13:02.071Z,1.40
2023-04-24T12:15:29.230Z,1.30
2023-04-24T12:17:56.857Z,1.58
2023-04-24T12:20:28.755Z,2.47
2023-04-24T12:22:59.876Z,1.90
2023-04-24T12:25:28.786Z,1.52
2023-04-24T12:28:05.616Z,1.38
2023-04-24T12:30:49.268Z,1.25
2023-04-24T12:33:22.794Z,2.13
2023-04-24T12:35:53.005Z,2.47
2023-04-24T12:38:24.160Z,1.30
2023-04-24T12:41:04.807Z,2.75
2023-04-24T12:43:31.556Z,2.42
2023-04-24T12:45:58.184Z,3.35
2023-04-24T12:48:24.693Z,1.20
2023-04-24T12:50:51.646Z,1.27
2023-04-24T12:53:18.307Z,1.30
2023-04-24T12:55:45.426Z,1.90
2023-04-24T12:58:13.094Z,1.10
2023-04-24T13:00:39.896Z,1.90
2023-04-24T13:03:06.619Z,1.65
2023-04-24T13:05:33.222Z,2.40
2023-04-24T13:07:59.954Z,1.60
2023-04-24T13:10:27.052Z,1.27
2023-04-24T13:12:53.728Z,0.85
2023-04-24T13:15:20.922Z,1.58
2023-04-24T13:17:47.699Z,1.40
2023-04-24T13:20:14.818Z,1.80
2023-04-24T13:22:41.358Z,1.17
2023-04-24T13:25:08.509Z,1.58
2023-04-24T13:27:35.097Z,1.60
2023-04-24T13:30:01.758Z,1.20
2023-04-24T13:32:28.832Z,1.30
2023-04-24T13:34:55.979Z,1.50
2023-04-24T13:37:22.478Z,1.27
2023-04-24T13:39:49.499Z,1.92
2023-04-24T13:42:16.226Z,1.88
2023-04-24T13:44:43.130Z,1.77
2023-04-24T13:47:09.519Z,1.77
2023-04-24T13:49:37.294Z,1.63
2023-04-24T13:52:03.923Z,1.60
2023-04-24T13:54:30.670Z,1.58
2023-04-24T13:56:59.267Z,1.95
2023-04-24T13:59:25.767Z,2.67
2023-04-24T14:01:52.459Z,2.10
2023-04-24T14:04:19.389Z,2.33
2023-04-24T14:06:46.400Z,1.88
2023-04-24T14:09:13.204Z,1.83
2023-04-24T14:11:39.748Z,1.40
2023-04-24T14:14:06.470Z,1.95
2023-04-24T14:16:32.966Z,2.13
2023-04-24T14:18:59.676Z,1.88
2023-04-24T14:21:26.487Z,1.58
2023-04-24T14:23:52.963Z,1.95
2023-04-24T14:26:20.928Z,1.48
2023-04-24T14:28:47.498Z,2.38
2023-04-24T14:31:14.273Z,1.88
2023-04-24T14:33:41.332Z,1.95
2023-04-24T14:36:07.880Z,1.63
2023-04-24T14:38:35.136Z,1.60
2023-04-24T14:43:32.004Z,1.67
2023-04-24T14:45:58.769Z,1.85
2023-04-24T14:48:26.016Z,2.05
2023-04-24T14:50:52.497Z,2.00
2023-04-24T14:53:18.899Z,1.42
2023-04-24T14:55:45.631Z,1.70
2023-04-24T14:58:12.136Z,2.15
2023-04-24T15:00:38.566Z,2.00
2023-04-24T15:03:05.735Z,2.13
2023-04-24T15:05:32.843Z,2.00
2023-04-24T15:07:59.787Z,1.58
2023-04-24T15:10:26.816Z,1.70
2023-04-24T15:12:53.461Z,1.65
2023-04-24T15:15:20.098Z,2.05
2023-04-24T15:17:46.681Z,1.90
2023-04-24T15:20:13.132Z,2.15
2023-04-24T15:22:39.558Z,1.92
2023-04-24T15:25:06.492Z,1.75
2023-04-24T15:27:46.072Z,2.28
2023-04-24T15:30:14.347Z,2.47
2023-04-24T15:32:41.045Z,2.40
2023-04-24T15:35:10.424Z,1.92
2023-04-24T15:37:38.860Z,1.80
2023-04-24T15:40:06.828Z,2.00
2023-04-24T15:42:33.827Z,2.10
2023-04-24T15:45:02.627Z,2.58
2023-04-24T15:47:29.496Z,1.60
2023-04-24T15:49:56.235Z,3.15
2023-04-24T15:52:22.824Z,2.65
2023-04-24T15:54:49.461Z,1.80
2023-04-24T15:57:17.714Z,1.55
2023-04-24T15:59:45.566Z,1.35
2023-04-24T16:02:14.037Z,1.50
2023-04-24T16:04:40.992Z,1.33
2023-04-24T16:07:07.631Z,1.50
2023-04-24T16:09:41.192Z,1.77
2023-04-24T16:12:08.084Z,1.95
2023-04-24T16:14:34.902Z,1.85
2023-04-24T16:17:02.416Z,1.40
2023-04-24T16:19:32.007Z,1.65
2023-04-24T16:21:58.666Z,1.88
2023-04-24T16:24:26.380Z,1.88
2023-04-24T16:26:53.315Z,1.45
2023-04-24T16:29:20.456Z,2.00
2023-04-24T16:31:46.951Z,1.20
2023-04-24T16:34:13.829Z,1.45
2023-04-24T16:36:40.762Z,1.25
2023-04-24T16:39:07.458Z,2.33
2023-04-24T16:41:35.081Z,1.70
2023-04-24T16:44:01.649Z,1.50
2023-04-24T16:46:28.267Z,1.60
2023-04-24T16:48:55.207Z,1.65
2023-04-24T16:51:21.609Z,1.15
2023-04-24T16:53:52.500Z,1.55
2023-04-24T16:58:45.737Z,2.00
2023-04-24T17:01:12.384Z,1.90
2023-04-24T17:03:39.121Z,1.60
2023-04-24T17:06:06.468Z,2.00
2023-04-24T17:08:33.299Z,2.00
2023-04-24T17:10:59.751Z,1.85
2023-04-24T17:13:27.734Z,1.85
2023-04-24T17:15:56.748Z,1.65
2023-04-24T17:18:23.423Z,1.90
2023-04-24T17:20:51.458Z,1.80
2023-04-24T17:23:18.641Z,1.98
2023-04-24T17:25:47.317Z,1.98
2023-04-24T17:28:24.168Z,1.40
2023-04-24T17:30:51.256Z,1.58
2023-04-24T17:33:17.835Z,2.10
2023-04-24T17:35:46.204Z,2.22
2023-04-24T17:38:12.863Z,1.50
2023-04-24T17:40:39.413Z,1.88
2023-04-24T17:43:06.316Z,1.30
2023-04-24T17:45:33.006Z,1.67
2023-04-24T17:47:59.951Z,1.70
2023-04-24T17:50:26.466Z,1.60
2023-04-24T17:52:52.865Z,1.65
2023-04-24T17:55:19.471Z,1.80
2023-04-24T17:57:46.256Z,1.50
2023-04-24T18:00:13.476Z,1.38
2023-04-24T18:02:41.217Z,0.95
2023-04-24T18:05:08.156Z,1.60
2023-04-24T18:07:34.791Z,1.15
2023-04-24T18:10:01.283Z,1.60
2023-04-24T18:12:28.045Z,1.75
2023-04-24T18:15:02.941Z,1.60
2023-04-24T18:17:39.556Z,1.60
2023-04-24T18:20:08.975Z,1.48
2023-04-24T18:22:35.698Z,1.30
2023-04-24T18:25:02.217Z,1.40
2023-04-24T18:27:29.402Z,1.38
2023-04-24T18:29:56.039Z,1.40
2023-04-24T18:32:22.816Z,1.85
2023-04-24T18:34:49.636Z,2.50
2023-04-24T18:37:17.661Z,2.10
2023-04-24T18:39:45.629Z,2.42
2023-04-24T18:42:12.496Z,2.10
2023-04-24T18:44:39.275Z,3.03
2023-04-24T18:47:06.103Z,2.20
2023-04-24T18:49:33.059Z,3.03
2023-04-24T18:52:01.816Z,3.58
2023-04-24T18:54:28.551Z,3.55
2023-04-24T18:56:55.245Z,3.88
2023-04-24T18:59:21.771Z,3.53
2023-04-24T19:01:48.361Z,4.20
2023-04-24T19:04:14.969Z,3.50
2023-04-24T19:06:41.567Z,2.63
2023-04-24T19:09:08.110Z,2.30
2023-04-24T19:11:34.654Z,3.00
2023-04-24T19:14:01.256Z,2.97
2023-04-24T19:16:28.056Z,2.25
2023-04-24T19:18:54.678Z,2.20
2023-04-24T19:21:21.258Z,2.33
2023-04-24T19:23:51.632Z,1.98
2023-04-24T19:26:18.299Z,1.88
2023-04-24T19:28:45.142Z,2.28
2023-04-24T19:31:11.794Z,1.85
2023-04-24T19:33:38.548Z,1.90
2023-04-24T19:36:05.872Z,2.13
2023-04-24T19:38:33.035Z,2.15
2023-04-24T19:40:59.833Z,1.85
2023-04-24T19:43:26.412Z,1.92
2023-04-24T19:45:52.879Z,2.50
2023-04-24T19:48:20.913Z,1.60
2023-04-24T19:50:47.652Z,1.95
2023-04-24T19:53:14.179Z,1.77
2023-04-24T19:55:40.672Z,1.70
2023-04-24T19:58:07.057Z,1.60
2023-04-24T20:00:33.584Z,1.42
2023-04-24T20:03:00.616Z,1.40
2023-04-24T20:05:27.520Z,1.20
2023-04-24T20:07:54.020Z,2.17
2023-04-24T20:10:20.386Z,1.30
2023-04-24T20:12:47.089Z,1.30
2023-04-24T20:15:13.491Z,1.30
2023-04-24T20:17:40.147Z,1.60
2023-04-24T20:20:07.869Z,2.10
2023-04-24T20:22:36.800Z,1.60
2023-04-24T20:25:03.428Z,1.58
2023-04-24T20:27:29.971Z,1.60
2023-04-24T20:29:56.449Z,1.80
2023-04-24T20:32:23.285Z,1.90
2023-04-24T20:34:49.766Z,1.90
2023-04-24T20:37:17.401Z,1.80
2023-04-24T20:39:43.731Z,1.92
2023-04-24T20:42:11.049Z,2.15
2023-04-24T20:44:38.360Z,2.33
2023-04-24T20:47:07.876Z,2.28
2023-04-24T20:49:34.390Z,2.45
2023-04-24T20:52:00.830Z,2.17
2023-04-24T20:54:27.283Z,2.67
2023-04-24T20:56:53.769Z,2.90
2023-04-24T20:59:20.791Z,2.30
2023-04-24T21:01:48.284Z,2.65
2023-04-24T21:04:14.764Z,2.53
2023-04-24T21:06:41.548Z,2.65
2023-04-24T21:09:08.045Z,2.63
2023-04-24T21:11:34.451Z,2.70
2023-04-24T21:14:00.966Z,3.50
2023-04-24T21:16:28.126Z,3.00
2023-04-24T21:18:54.832Z,2.63
2023-04-24T21:21:21.315Z,2.63
2023-04-24T21:23:47.933Z,2.47
2023-04-24T21:26:14.689Z,2.60
2023-04-24T21:28:41.228Z,2.30
2023-04-24T21:31:07.725Z,2.72
2023-04-24T21:33:35.463Z,2.45
2023-04-24T21:36:01.814Z,2.38
2023-04-24T21:38:28.176Z,2.35
2023-04-24T21:40:54.620Z,2.50
2023-04-24T21:43:27.722Z,2.60
2023-04-24T21:46:00.385Z,7.32
2023-04-24T21:48:28.132Z,8.20
2023-04-24T21:50:54.614Z,6.95
2023-04-24T21:53:21.342Z,8.95
2023-04-24T21:55:47.952Z,7.40
2023-04-24T21:58:14.661Z,5.80
2023-04-24T22:00:41.749Z,4.53
2023-04-24T22:03:08.474Z,3.78
2023-04-24T22:05:35.089Z,3.40
2023-04-24T22:08:01.495Z,3.58
2023-04-24T22:10:28.072Z,3.60
2023-04-24T22:12:54.529Z,5.03
2023-04-24T22:15:21.212Z,3.53
2023-04-24T22:17:47.680Z,3.53
2023-04-24T22:20:14.453Z,4.10
2023-04-24T22:22:40.955Z,3.83
2023-04-24T22:25:07.822Z,3.80
2023-04-24T22:27:35.490Z,4.03
2023-04-24T22:30:02.190Z,3.85
2023-04-24T22:32:28.637Z,3.20
2023-04-24T22:34:55.127Z,2.95
2023-04-24T22:37:21.559Z,2.90
2023-04-24T22:39:48.030Z,3.05
2023-04-24T22:42:14.692Z,3.10
2023-04-24T22:44:41.449Z,3.20
2023-04-24T22:47:08.119Z,3.40
2023-04-24T22:49:35.882Z,2.78
2023-04-24T22:52:02.378Z,2.90
2023-04-24T22:54:29.937Z,3.15
2023-04-24T22:56:57.257Z,3.08
2023-04-24T22:59:23.685Z,2.75
2023-04-24T23:01:50.255Z,2.75
2023-04-24T23:04:16.782Z,3.20
2023-04-24T23:06:43.298Z,3.03
2023-04-24T23:09:09.933Z,2.90
2023-04-24T23:11:36.484Z,2.90
2023-04-24T23:14:03.362Z,3.08
2023-04-24T23:16:30.424Z,3.50
2023-04-24T23:18:57.128Z,3.45
2023-04-24T23:21:23.475Z,3.50
2023-04-24T23:23:50.372Z,3.70
2023-04-24T23:26:16.971Z,3.20
2023-04-24T23:28:43.412Z,3.35
2023-04-24T23:31:11.027Z,3.42
2023-04-24T23:33:37.595Z,3.83
2023-04-24T23:36:04.972Z,3.33
2023-04-24T23:38:42.945Z,3.33
2023-04-24T23:41:15.865Z,3.15
2023-04-24T23:43:42.286Z,3.40
2023-04-24T23:46:08.888Z,3.35
2023-04-24T23:48:35.286Z,3.55
2023-04-24T23:51:01.762Z,3.20
2023-04-24T23:53:28.339Z,3.28
2023-04-24T23:55:54.766Z,3.00
2023-04-24T23:58:21.286Z,3.13
